sensor_id;sensor_type;location;lat;lon;timestamp;temperature;humidity
14884;DHT22;7534;50.762;7.000;2023-11-21T00:00:46;8.40;99.90
14884;DHT22;7534;50.762;7.000;2023-11-21T00:03:12;8.40;99.90
14884;DHT22;7534;50.762;7.000;2023-11-21T00:05:48;8.40;99.90
14884;DHT22;7534;50.762;7.000;2023-11-21T00:08:16;8.40;99.90
14884;DHT22;7534;50.762;7.000;2023-11-21T00:10:47;8.40;99.90
14884;DHT22;7534;50.762;7.000;2023-11-21T00:13:15;8.40;99.90
14884;DHT22;7534;50.762;7.000;2023-11-21T00:15:44;8.40;99.90
14884;DHT22;7534;50.762;7.000;2023-11-21T00:18:17;8.40;99.90
14884;DHT22;7534;50.762;7.000;2023-11-21T00:20:59;8.50;99.90
14884;DHT22;7534;50.762;7.000;2023-11-21T00:23:48;8.50;99.90
14884;DHT22;7534;50.762;7.000;2023-11-21T00:26:19;8.50;99.90
14884;DHT22;7534;50.762;7.000;2023-11-21T00:28:45;8.50;99.90
14884;DHT22;7534;50.762;7.000;2023-11-21T00:31:18;8.50;99.90
14884;DHT22;7534;50.762;7.000;2023-11-21T00:33:47;8.50;99.90
14884;DHT22;7534;50.762;7.000;2023-11-21T00:36:15;8.50;99.90
14884;DHT22;7534;50.762;7.000;2023-11-21T00:38:40;8.50;99.90
14884;DHT22;7534;50.762;7.000;2023-11-21T00:41:06;8.40;99.90
14884;DHT22;7534;50.762;7.000;2023-11-21T00:43:34;8.40;99.90
14884;DHT22;7534;50.762;7.000;2023-11-21T00:46:04;8.40;99.90
14884;DHT22;7534;50.762;7.000;2023-11-21T00:48:33;8.40;99.90
14884;DHT22;7534;50.762;7.000;2023-11-21T00:51:01;8.40;99.90
14884;DHT22;7534;50.762;7.000;2023-11-21T00:53:27;8.40;99.90
14884;DHT22;7534;50.762;7.000;2023-11-21T00:55:53;8.40;99.90
14884;DHT22;7534;50.762;7.000;2023-11-21T00:58:23;8.40;99.90
14884;DHT22;7534;50.762;7.000;2023-11-21T01:00:49;8.50;99.90
14884;DHT22;7534;50.762;7.000;2023-11-21T01:03:15;8.40;99.90
14884;DHT22;7534;50.762;7.000;2023-11-21T01:05:41;8.40;99.90
14884;DHT22;7534;50.762;7.000;2023-11-21T01:08:11;8.50;99.90
14884;DHT22;7534;50.762;7.000;2023-11-21T01:10:42;8.50;99.90
14884;DHT22;7534;50.762;7.000;2023-11-21T01:13:08;8.50;99.90
14884;DHT22;7534;50.762;7.000;2023-11-21T01:15:38;8.50;99.90
14884;DHT22;7534;50.762;7.000;2023-11-21T01:18:12;8.50;99.90
14884;DHT22;7534;50.762;7.000;2023-11-21T01:20:55;8.50;99.90
14884;DHT22;7534;50.762;7.000;2023-11-21T01:23:34;8.50;99.90
14884;DHT22;7534;50.762;7.000;2023-11-21T01:26:00;8.50;99.90
14884;DHT22;7534;50.762;7.000;2023-11-21T01:28:28;8.50;99.90
14884;DHT22;7534;50.762;7.000;2023-11-21T01:30:57;8.50;99.90
14884;DHT22;7534;50.762;7.000;2023-11-21T01:33:25;8.50;99.90
14884;DHT22;7534;50.762;7.000;2023-11-21T01:35:54;8.50;99.90
14884;DHT22;7534;50.762;7.000;2023-11-21T01:38:21;8.50;99.90
14884;DHT22;7534;50.762;7.000;2023-11-21T01:40:47;8.50;99.90
14884;DHT22;7534;50.762;7.000;2023-11-21T01:43:13;8.50;99.90
14884;DHT22;7534;50.762;7.000;2023-11-21T01:45:39;8.50;99.90
14884;DHT22;7534;50.762;7.000;2023-11-21T01:48:05;8.50;99.90
14884;DHT22;7534;50.762;7.000;2023-11-21T01:50:32;8.50;99.90
14884;DHT22;7534;50.762;7.000;2023-11-21T01:52:59;8.50;99.90
14884;DHT22;7534;50.762;7.000;2023-11-21T01:55:26;8.50;99.90
14884;DHT22;7534;50.762;7.000;2023-11-21T01:57:53;8.50;99.90
14884;DHT22;7534;50.762;7.000;2023-11-21T02:00:18;8.50;99.90
14884;DHT22;7534;50.762;7.000;2023-11-21T02:02:45;8.50;99.90
14884;DHT22;7534;50.762;7.000;2023-11-21T02:05:13;8.50;99.90
14884;DHT22;7534;50.762;7.000;2023-11-21T02:07:41;8.50;99.90
14884;DHT22;7534;50.762;7.000;2023-11-21T02:10:08;8.50;99.90
14884;DHT22;7534;50.762;7.000;2023-11-21T02:12:35;8.50;99.90
14884;DHT22;7534;50.762;7.000;2023-11-21T02:15:05;8.60;99.90
14884;DHT22;7534;50.762;7.000;2023-11-21T02:17:35;8.60;99.90
14884;DHT22;7534;50.762;7.000;2023-11-21T02:20:02;8.50;99.90
14884;DHT22;7534;50.762;7.000;2023-11-21T02:22:31;8.50;99.90
14884;DHT22;7534;50.762;7.000;2023-11-21T02:24:59;8.40;99.90
14884;DHT22;7534;50.762;7.000;2023-11-21T02:27:25;8.40;99.90
14884;DHT22;7534;50.762;7.000;2023-11-21T02:29:53;8.40;99.90
14884;DHT22;7534;50.762;7.000;2023-11-21T02:32:19;8.30;99.90
14884;DHT22;7534;50.762;7.000;2023-11-21T02:34:48;8.30;99.90
14884;DHT22;7534;50.762;7.000;2023-11-21T02:37:14;8.30;99.90
14884;DHT22;7534;50.762;7.000;2023-11-21T02:39:39;8.20;99.90
14884;DHT22;7534;50.762;7.000;2023-11-21T02:42:05;8.20;99.90
14884;DHT22;7534;50.762;7.000;2023-11-21T02:44:31;8.20;99.90
14884;DHT22;7534;50.762;7.000;2023-11-21T02:46:57;8.10;99.90
14884;DHT22;7534;50.762;7.000;2023-11-21T02:49:23;8.10;99.90
14884;DHT22;7534;50.762;7.000;2023-11-21T02:51:49;8.00;99.90
14884;DHT22;7534;50.762;7.000;2023-11-21T02:54:14;7.90;99.90
14884;DHT22;7534;50.762;7.000;2023-11-21T02:56:42;7.80;99.90
14884;DHT22;7534;50.762;7.000;2023-11-21T02:59:10;7.80;99.90
14884;DHT22;7534;50.762;7.000;2023-11-21T03:01:35;7.70;99.90
14884;DHT22;7534;50.762;7.000;2023-11-21T03:04:01;7.60;99.90
14884;DHT22;7534;50.762;7.000;2023-11-21T03:06:28;7.50;99.80
14884;DHT22;7534;50.762;7.000;2023-11-21T03:08:54;7.50;99.90
14884;DHT22;7534;50.762;7.000;2023-11-21T03:11:20;7.50;99.90
14884;DHT22;7534;50.762;7.000;2023-11-21T03:13:45;7.50;99.90
14884;DHT22;7534;50.762;7.000;2023-11-21T03:16:12;7.50;99.90
14884;DHT22;7534;50.762;7.000;2023-11-21T03:18:38;7.50;99.90
14884;DHT22;7534;50.762;7.000;2023-11-21T03:21:07;7.50;99.90
14884;DHT22;7534;50.762;7.000;2023-11-21T03:23:36;7.60;99.90
14884;DHT22;7534;50.762;7.000;2023-11-21T03:26:03;7.60;99.90
14884;DHT22;7534;50.762;7.000;2023-11-21T03:28:29;7.70;99.90
14884;DHT22;7534;50.762;7.000;2023-11-21T03:30:56;7.70;99.90
14884;DHT22;7534;50.762;7.000;2023-11-21T03:33:21;7.70;99.90
14884;DHT22;7534;50.762;7.000;2023-11-21T03:35:48;7.80;99.90
14884;DHT22;7534;50.762;7.000;2023-11-21T03:38:14;7.80;99.90
14884;DHT22;7534;50.762;7.000;2023-11-21T03:40:41;7.80;99.90
14884;DHT22;7534;50.762;7.000;2023-11-21T03:43:07;7.80;99.90
14884;DHT22;7534;50.762;7.000;2023-11-21T03:45:33;7.80;99.90
14884;DHT22;7534;50.762;7.000;2023-11-21T03:47:58;7.80;99.90
14884;DHT22;7534;50.762;7.000;2023-11-21T03:50:28;7.80;99.90
14884;DHT22;7534;50.762;7.000;2023-11-21T03:52:54;7.80;99.90
14884;DHT22;7534;50.762;7.000;2023-11-21T03:55:20;7.90;99.90
14884;DHT22;7534;50.762;7.000;2023-11-21T03:57:46;7.90;99.90
14884;DHT22;7534;50.762;7.000;2023-11-21T04:00:11;7.90;99.90
14884;DHT22;7534;50.762;7.000;2023-11-21T04:02:38;7.90;99.90
14884;DHT22;7534;50.762;7.000;2023-11-21T04:05:05;7.90;99.90
14884;DHT22;7534;50.762;7.000;2023-11-21T04:07:32;7.90;99.90
14884;DHT22;7534;50.762;7.000;2023-11-21T04:09:59;7.90;99.90
14884;DHT22;7534;50.762;7.000;2023-11-21T04:12:25;7.80;99.90
14884;DHT22;7534;50.762;7.000;2023-11-21T04:14:51;7.80;99.90
14884;DHT22;7534;50.762;7.000;2023-11-21T04:17:19;7.80;99.90
14884;DHT22;7534;50.762;7.000;2023-11-21T04:19:46;7.80;99.90
14884;DHT22;7534;50.762;7.000;2023-11-21T04:22:12;7.80;99.90
14884;DHT22;7534;50.762;7.000;2023-11-21T04:24:38;7.80;99.90
14884;DHT22;7534;50.762;7.000;2023-11-21T04:27:03;7.80;99.90
14884;DHT22;7534;50.762;7.000;2023-11-21T04:29:29;7.80;99.90
14884;DHT22;7534;50.762;7.000;2023-11-21T04:31:55;7.80;99.90
14884;DHT22;7534;50.762;7.000;2023-11-21T04:34:21;7.90;99.90
14884;DHT22;7534;50.762;7.000;2023-11-21T04:36:46;7.90;99.90
14884;DHT22;7534;50.762;7.000;2023-11-21T04:39:12;7.90;99.90
14884;DHT22;7534;50.762;7.000;2023-11-21T04:41:38;7.90;99.90
14884;DHT22;7534;50.762;7.000;2023-11-21T04:44:06;7.80;99.90
14884;DHT22;7534;50.762;7.000;2023-11-21T04:46:32;7.80;99.90
14884;DHT22;7534;50.762;7.000;2023-11-21T04:48:58;7.80;99.90
14884;DHT22;7534;50.762;7.000;2023-11-21T04:51:24;7.80;99.90
14884;DHT22;7534;50.762;7.000;2023-11-21T04:53:50;7.70;99.90
14884;DHT22;7534;50.762;7.000;2023-11-21T04:56:15;7.70;99.90
14884;DHT22;7534;50.762;7.000;2023-11-21T04:58:41;7.70;99.90
14884;DHT22;7534;50.762;7.000;2023-11-21T05:01:08;7.70;99.90
14884;DHT22;7534;50.762;7.000;2023-11-21T05:03:33;7.70;99.90
14884;DHT22;7534;50.762;7.000;2023-11-21T05:06:00;7.70;99.90
14884;DHT22;7534;50.762;7.000;2023-11-21T05:08:25;7.70;99.90
14884;DHT22;7534;50.762;7.000;2023-11-21T05:10:52;7.70;99.90
14884;DHT22;7534;50.762;7.000;2023-11-21T05:13:19;7.70;99.90
14884;DHT22;7534;50.762;7.000;2023-11-21T05:15:45;7.60;99.90
14884;DHT22;7534;50.762;7.000;2023-11-21T05:18:11;7.60;99.90
14884;DHT22;7534;50.762;7.000;2023-11-21T05:20:39;7.50;99.90
14884;DHT22;7534;50.762;7.000;2023-11-21T05:23:06;7.40;99.90
14884;DHT22;7534;50.762;7.000;2023-11-21T05:25:33;7.40;99.90
14884;DHT22;7534;50.762;7.000;2023-11-21T05:27:59;7.30;99.90
14884;DHT22;7534;50.762;7.000;2023-11-21T05:30:47;7.30;99.90
14884;DHT22;7534;50.762;7.000;2023-11-21T05:33:33;7.20;99.90
14884;DHT22;7534;50.762;7.000;2023-11-21T05:36:33;7.10;99.90
14884;DHT22;7534;50.762;7.000;2023-11-21T05:38:59;7.10;99.90
14884;DHT22;7534;50.762;7.000;2023-11-21T05:41:25;7.10;99.90
14884;DHT22;7534;50.762;7.000;2023-11-21T05:43:52;7.00;99.90
14884;DHT22;7534;50.762;7.000;2023-11-21T05:46:19;7.00;99.90
14884;DHT22;7534;50.762;7.000;2023-11-21T05:48:45;7.00;99.90
14884;DHT22;7534;50.762;7.000;2023-11-21T05:51:11;7.00;99.90
14884;DHT22;7534;50.762;7.000;2023-11-21T05:53:39;7.10;99.90
14884;DHT22;7534;50.762;7.000;2023-11-21T05:56:05;7.10;99.90
14884;DHT22;7534;50.762;7.000;2023-11-21T05:58:31;7.10;99.90
14884;DHT22;7534;50.762;7.000;2023-11-21T06:00:56;7.10;99.90
14884;DHT22;7534;50.762;7.000;2023-11-21T06:03:24;7.10;99.90
14884;DHT22;7534;50.762;7.000;2023-11-21T06:05:51;7.20;99.90
14884;DHT22;7534;50.762;7.000;2023-11-21T06:08:18;7.20;99.90
14884;DHT22;7534;50.762;7.000;2023-11-21T06:10:45;7.30;99.90
14884;DHT22;7534;50.762;7.000;2023-11-21T06:13:15;7.30;99.90
14884;DHT22;7534;50.762;7.000;2023-11-21T06:15:42;7.30;99.90
14884;DHT22;7534;50.762;7.000;2023-11-21T06:18:08;7.40;99.90
14884;DHT22;7534;50.762;7.000;2023-11-21T06:20:36;7.40;99.90
14884;DHT22;7534;50.762;7.000;2023-11-21T06:23:02;7.40;99.90
14884;DHT22;7534;50.762;7.000;2023-11-21T06:25:29;7.50;99.90
14884;DHT22;7534;50.762;7.000;2023-11-21T06:27:58;7.40;99.90
14884;DHT22;7534;50.762;7.000;2023-11-21T06:30:24;7.50;99.90
14884;DHT22;7534;50.762;7.000;2023-11-21T06:32:49;7.40;99.90
14884;DHT22;7534;50.762;7.000;2023-11-21T06:35:16;7.50;99.90
14884;DHT22;7534;50.762;7.000;2023-11-21T06:37:42;7.50;99.90
14884;DHT22;7534;50.762;7.000;2023-11-21T06:40:12;7.50;99.90
14884;DHT22;7534;50.762;7.000;2023-11-21T06:42:40;7.50;99.90
14884;DHT22;7534;50.762;7.000;2023-11-21T06:45:07;7.60;99.90
14884;DHT22;7534;50.762;7.000;2023-11-21T06:47:33;7.50;99.90
14884;DHT22;7534;50.762;7.000;2023-11-21T06:49:59;7.50;99.90
14884;DHT22;7534;50.762;7.000;2023-11-21T06:52:25;7.60;99.90
14884;DHT22;7534;50.762;7.000;2023-11-21T06:54:51;7.60;99.90
14884;DHT22;7534;50.762;7.000;2023-11-21T06:57:17;7.60;99.90
14884;DHT22;7534;50.762;7.000;2023-11-21T06:59:43;7.60;99.90
14884;DHT22;7534;50.762;7.000;2023-11-21T07:02:09;7.60;99.90
14884;DHT22;7534;50.762;7.000;2023-11-21T07:04:35;7.60;99.90
14884;DHT22;7534;50.762;7.000;2023-11-21T07:07:06;7.60;99.90
14884;DHT22;7534;50.762;7.000;2023-11-21T07:09:32;7.60;99.90
14884;DHT22;7534;50.762;7.000;2023-11-21T07:12:10;7.70;99.90
14884;DHT22;7534;50.762;7.000;2023-11-21T07:14:36;7.70;99.90
14884;DHT22;7534;50.762;7.000;2023-11-21T07:17:10;7.70;99.90
14884;DHT22;7534;50.762;7.000;2023-11-21T07:19:47;7.80;99.90
14884;DHT22;7534;50.762;7.000;2023-11-21T07:22:13;7.80;99.90
14884;DHT22;7534;50.762;7.000;2023-11-21T07:24:39;7.80;99.90
14884;DHT22;7534;50.762;7.000;2023-11-21T07:27:05;7.90;99.90
14884;DHT22;7534;50.762;7.000;2023-11-21T07:29:35;7.90;99.90
14884;DHT22;7534;50.762;7.000;2023-11-21T07:32:01;7.90;99.90
14884;DHT22;7534;50.762;7.000;2023-11-21T07:34:27;8.00;99.90
14884;DHT22;7534;50.762;7.000;2023-11-21T07:36:55;8.00;99.90
14884;DHT22;7534;50.762;7.000;2023-11-21T07:39:43;8.10;99.90
14884;DHT22;7534;50.762;7.000;2023-11-21T07:42:15;8.10;99.90
14884;DHT22;7534;50.762;7.000;2023-11-21T07:44:42;8.10;99.90
14884;DHT22;7534;50.762;7.000;2023-11-21T07:47:14;8.10;99.90
14884;DHT22;7534;50.762;7.000;2023-11-21T07:49:45;8.20;99.90
14884;DHT22;7534;50.762;7.000;2023-11-21T07:52:12;8.20;99.90
14884;DHT22;7534;50.762;7.000;2023-11-21T07:54:41;8.20;99.90
14884;DHT22;7534;50.762;7.000;2023-11-21T07:57:10;8.20;99.90
14884;DHT22;7534;50.762;7.000;2023-11-21T08:00:09;8.30;99.90
14884;DHT22;7534;50.762;7.000;2023-11-21T08:02:49;8.30;99.90
14884;DHT22;7534;50.762;7.000;2023-11-21T08:05:17;8.30;99.90
14884;DHT22;7534;50.762;7.000;2023-11-21T08:07:46;8.30;99.90
14884;DHT22;7534;50.762;7.000;2023-11-21T08:10:36;8.40;99.90
14884;DHT22;7534;50.762;7.000;2023-11-21T08:13:34;8.40;99.90
14884;DHT22;7534;50.762;7.000;2023-11-21T08:48:01;9.00;99.40
14884;DHT22;7534;50.762;7.000;2023-11-21T08:50:55;9.00;98.50
14884;DHT22;7534;50.762;7.000;2023-11-21T08:53:52;9.10;98.40
14884;DHT22;7534;50.762;7.000;2023-11-21T08:56:57;9.30;98.30
14884;DHT22;7534;50.762;7.000;2023-11-21T08:59:35;9.60;96.80
14884;DHT22;7534;50.762;7.000;2023-11-21T09:03:00;9.80;95.40
14884;DHT22;7534;50.762;7.000;2023-11-21T09:09:43;10.00;92.70
14884;DHT22;7534;50.762;7.000;2023-11-21T09:15:48;10.00;92.30
14884;DHT22;7534;50.762;7.000;2023-11-21T09:24:38;10.10;90.90
14884;DHT22;7534;50.762;7.000;2023-11-21T09:32:59;10.30;90.50
14884;DHT22;7534;50.762;7.000;2023-11-21T10:24:00;10.70;87.70
14884;DHT22;7534;50.762;7.000;2023-11-21T10:26:48;10.70;88.20
14884;DHT22;7534;50.762;7.000;2023-11-21T10:29:42;10.80;86.80
14884;DHT22;7534;50.762;7.000;2023-11-21T10:32:32;10.70;87.10
14884;DHT22;7534;50.762;7.000;2023-11-21T10:38:58;10.80;86.00
14884;DHT22;7534;50.762;7.000;2023-11-21T10:42:34;10.90;86.00
14884;DHT22;7534;50.762;7.000;2023-11-21T10:45:04;10.80;85.80
14884;DHT22;7534;50.762;7.000;2023-11-21T10:47:48;10.80;85.70
14884;DHT22;7534;50.762;7.000;2023-11-21T10:50:19;10.70;86.20
14884;DHT22;7534;50.762;7.000;2023-11-21T10:53:03;10.70;86.70
14884;DHT22;7534;50.762;7.000;2023-11-21T10:55:38;10.70;86.10
14884;DHT22;7534;50.762;7.000;2023-11-21T10:58:07;10.70;87.30
14884;DHT22;7534;50.762;7.000;2023-11-21T11:00:41;10.80;86.70
14884;DHT22;7534;50.762;7.000;2023-11-21T11:03:11;10.80;86.80
14884;DHT22;7534;50.762;7.000;2023-11-21T11:05:41;10.90;86.50
14884;DHT22;7534;50.762;7.000;2023-11-21T11:08:21;11.00;85.20
14884;DHT22;7534;50.762;7.000;2023-11-21T11:10:52;11.00;85.60
14884;DHT22;7534;50.762;7.000;2023-11-21T11:13:18;11.10;85.60
14884;DHT22;7534;50.762;7.000;2023-11-21T11:15:47;11.10;85.10
14884;DHT22;7534;50.762;7.000;2023-11-21T11:18:14;11.20;84.40
14884;DHT22;7534;50.762;7.000;2023-11-21T11:20:42;11.20;85.30
14884;DHT22;7534;50.762;7.000;2023-11-21T13:25:57;11.20;83.00
14884;DHT22;7534;50.762;7.000;2023-11-21T13:29:07;11.20;83.10
14884;DHT22;7534;50.762;7.000;2023-11-21T13:32:07;11.10;83.50
14884;DHT22;7534;50.762;7.000;2023-11-21T13:35:47;11.00;83.90
14884;DHT22;7534;50.762;7.000;2023-11-21T13:42:43;10.70;85.70
14884;DHT22;7534;50.762;7.000;2023-11-21T13:46:46;10.60;86.30
14884;DHT22;7534;50.762;7.000;2023-11-21T13:49:16;10.50;87.10
14884;DHT22;7534;50.762;7.000;2023-11-21T13:52:18;10.50;86.80
14884;DHT22;7534;50.762;7.000;2023-11-21T13:54:54;10.50;87.70
14884;DHT22;7534;50.762;7.000;2023-11-21T13:57:21;10.40;87.50
14884;DHT22;7534;50.762;7.000;2023-11-21T13:59:47;10.40;87.80
14884;DHT22;7534;50.762;7.000;2023-11-21T14:06:02;10.30;88.00
14884;DHT22;7534;50.762;7.000;2023-11-21T14:13:17;10.40;87.60
14884;DHT22;7534;50.762;7.000;2023-11-21T14:16:25;10.40;87.20
14884;DHT22;7534;50.762;7.000;2023-11-21T14:19:07;10.40;86.80
14884;DHT22;7534;50.762;7.000;2023-11-21T14:21:54;10.40;87.30
14884;DHT22;7534;50.762;7.000;2023-11-21T14:24:44;10.40;87.70
14884;DHT22;7534;50.762;7.000;2023-11-21T14:28:09;10.30;88.10
14884;DHT22;7534;50.762;7.000;2023-11-21T14:31:09;10.40;87.70
14884;DHT22;7534;50.762;7.000;2023-11-21T14:34:07;10.30;88.40
14884;DHT22;7534;50.762;7.000;2023-11-21T14:36:56;10.30;89.00
14884;DHT22;7534;50.762;7.000;2023-11-21T14:40:04;10.20;89.10
14884;DHT22;7534;50.762;7.000;2023-11-21T14:42:58;10.20;89.60
14884;DHT22;7534;50.762;7.000;2023-11-21T14:46:21;10.20;89.50
14884;DHT22;7534;50.762;7.000;2023-11-21T14:48:50;10.20;89.50
14884;DHT22;7534;50.762;7.000;2023-11-21T14:52:00;10.20;89.40
14884;DHT22;7534;50.762;7.000;2023-11-21T14:54:32;10.20;89.80
14884;DHT22;7534;50.762;7.000;2023-11-21T14:57:11;10.20;89.60
14884;DHT22;7534;50.762;7.000;2023-11-21T14:59:44;10.10;89.60
14884;DHT22;7534;50.762;7.000;2023-11-21T15:02:23;10.00;90.10
14884;DHT22;7534;50.762;7.000;2023-11-21T15:05:10;10.00;90.40
14884;DHT22;7534;50.762;7.000;2023-11-21T15:07:50;10.00;90.00
14884;DHT22;7534;50.762;7.000;2023-11-21T15:10:26;10.00;90.30
14884;DHT22;7534;50.762;7.000;2023-11-21T15:13:11;9.90;90.60
14884;DHT22;7534;50.762;7.000;2023-11-21T15:16:14;9.90;90.60
14884;DHT22;7534;50.762;7.000;2023-11-21T15:22:26;9.80;91.10
14884;DHT22;7534;50.762;7.000;2023-11-21T15:24:58;9.80;91.10
14884;DHT22;7534;50.762;7.000;2023-11-21T15:27:36;9.80;91.10
14884;DHT22;7534;50.762;7.000;2023-11-21T15:30:03;9.80;90.90
14884;DHT22;7534;50.762;7.000;2023-11-21T15:32:30;9.80;91.40
14884;DHT22;7534;50.762;7.000;2023-11-21T15:35:11;9.70;91.80
14884;DHT22;7534;50.762;7.000;2023-11-21T15:37:40;9.70;92.10
14884;DHT22;7534;50.762;7.000;2023-11-21T15:40:06;9.70;92.20
14884;DHT22;7534;50.762;7.000;2023-11-21T15:42:35;9.70;92.20
14884;DHT22;7534;50.762;7.000;2023-11-21T15:45:03;9.60;92.10
14884;DHT22;7534;50.762;7.000;2023-11-21T15:47:33;9.60;92.20
14884;DHT22;7534;50.762;7.000;2023-11-21T15:50:00;9.60;92.20
14884;DHT22;7534;50.762;7.000;2023-11-21T15:52:26;9.60;92.40
14884;DHT22;7534;50.762;7.000;2023-11-21T15:54:54;9.60;92.10
14884;DHT22;7534;50.762;7.000;2023-11-21T15:57:22;9.60;92.20
14884;DHT22;7534;50.762;7.000;2023-11-21T15:59:48;9.60;92.10
14884;DHT22;7534;50.762;7.000;2023-11-21T16:02:15;9.60;92.10
14884;DHT22;7534;50.762;7.000;2023-11-21T16:04:41;9.60;92.30
14884;DHT22;7534;50.762;7.000;2023-11-21T16:07:08;9.60;92.50
14884;DHT22;7534;50.762;7.000;2023-11-21T16:09:36;9.70;92.30
14884;DHT22;7534;50.762;7.000;2023-11-21T16:12:05;9.60;92.50
14884;DHT22;7534;50.762;7.000;2023-11-21T16:14:33;9.60;92.70
14884;DHT22;7534;50.762;7.000;2023-11-21T16:17:17;9.60;93.10
14884;DHT22;7534;50.762;7.000;2023-11-21T16:19:43;9.60;93.10
14884;DHT22;7534;50.762;7.000;2023-11-21T16:22:09;9.50;93.30
14884;DHT22;7534;50.762;7.000;2023-11-21T16:24:36;9.60;93.70
14884;DHT22;7534;50.762;7.000;2023-11-21T16:27:03;9.50;93.50
14884;DHT22;7534;50.762;7.000;2023-11-21T16:29:30;9.50;93.80
14884;DHT22;7534;50.762;7.000;2023-11-21T16:32:09;9.50;94.20
14884;DHT22;7534;50.762;7.000;2023-11-21T16:34:40;9.50;94.30
14884;DHT22;7534;50.762;7.000;2023-11-21T16:37:06;9.50;94.30
14884;DHT22;7534;50.762;7.000;2023-11-21T16:39:32;9.50;94.50
14884;DHT22;7534;50.762;7.000;2023-11-21T16:41:58;9.50;94.60
14884;DHT22;7534;50.762;7.000;2023-11-21T16:44:29;9.50;94.50
14884;DHT22;7534;50.762;7.000;2023-11-21T16:46:58;9.50;94.60
14884;DHT22;7534;50.762;7.000;2023-11-21T16:49:31;9.50;94.90
14884;DHT22;7534;50.762;7.000;2023-11-21T16:52:02;9.50;94.90
14884;DHT22;7534;50.762;7.000;2023-11-21T16:54:28;9.50;94.90
14884;DHT22;7534;50.762;7.000;2023-11-21T16:56:59;9.50;94.90
14884;DHT22;7534;50.762;7.000;2023-11-21T16:59:27;9.50;94.60
14884;DHT22;7534;50.762;7.000;2023-11-21T17:01:53;9.60;94.00
14884;DHT22;7534;50.762;7.000;2023-11-21T17:04:20;9.60;93.10
14884;DHT22;7534;50.762;7.000;2023-11-21T17:06:46;9.60;92.60
14884;DHT22;7534;50.762;7.000;2023-11-21T17:09:17;9.60;92.60
14884;DHT22;7534;50.762;7.000;2023-11-21T17:11:49;9.70;92.50
14884;DHT22;7534;50.762;7.000;2023-11-21T17:14:15;9.60;92.50
14884;DHT22;7534;50.762;7.000;2023-11-21T17:16:47;9.60;92.30
14884;DHT22;7534;50.762;7.000;2023-11-21T17:19:18;9.50;92.10
14884;DHT22;7534;50.762;7.000;2023-11-21T17:21:50;9.50;92.10
14884;DHT22;7534;50.762;7.000;2023-11-21T17:25:09;9.60;92.20
14884;DHT22;7534;50.762;7.000;2023-11-21T17:31:31;9.60;91.90
14884;DHT22;7534;50.762;7.000;2023-11-21T17:34:02;9.50;90.70
14884;DHT22;7534;50.762;7.000;2023-11-21T17:36:29;9.50;90.90
14884;DHT22;7534;50.762;7.000;2023-11-21T17:39:25;9.60;90.60
14884;DHT22;7534;50.762;7.000;2023-11-21T17:42:17;9.60;90.30
14884;DHT22;7534;50.762;7.000;2023-11-21T17:45:18;9.60;90.40
14884;DHT22;7534;50.762;7.000;2023-11-21T17:47:46;9.70;89.80
14884;DHT22;7534;50.762;7.000;2023-11-21T17:50:42;9.60;89.80
14884;DHT22;7534;50.762;7.000;2023-11-21T17:53:11;9.60;88.90
14884;DHT22;7534;50.762;7.000;2023-11-21T17:55:37;9.70;88.70
14884;DHT22;7534;50.762;7.000;2023-11-21T17:58:03;9.70;88.60
14884;DHT22;7534;50.762;7.000;2023-11-21T18:00:35;9.60;88.40
14884;DHT22;7534;50.762;7.000;2023-11-21T18:03:07;9.60;88.70
14884;DHT22;7534;50.762;7.000;2023-11-21T18:05:37;9.50;88.80
14884;DHT22;7534;50.762;7.000;2023-11-21T18:08:03;9.50;89.30
14884;DHT22;7534;50.762;7.000;2023-11-21T18:10:35;9.40;89.30
14884;DHT22;7534;50.762;7.000;2023-11-21T18:13:04;9.30;89.60
14884;DHT22;7534;50.762;7.000;2023-11-21T18:15:31;9.30;90.50
14884;DHT22;7534;50.762;7.000;2023-11-21T18:17:57;9.30;91.10
14884;DHT22;7534;50.762;7.000;2023-11-21T18:20:23;9.20;91.40
14884;DHT22;7534;50.762;7.000;2023-11-21T18:23:00;9.10;92.00
14884;DHT22;7534;50.762;7.000;2023-11-21T18:25:32;9.00;91.90
14884;DHT22;7534;50.762;7.000;2023-11-21T18:28:11;9.00;92.00
14884;DHT22;7534;50.762;7.000;2023-11-21T18:30:37;8.90;90.20
14884;DHT22;7534;50.762;7.000;2023-11-21T18:33:02;8.90;90.60
14884;DHT22;7534;50.762;7.000;2023-11-21T18:35:29;8.80;90.00
14884;DHT22;7534;50.762;7.000;2023-11-21T18:37:56;8.80;90.20
14884;DHT22;7534;50.762;7.000;2023-11-21T18:40:22;8.70;90.50
14884;DHT22;7534;50.762;7.000;2023-11-21T18:42:47;8.70;90.80
14884;DHT22;7534;50.762;7.000;2023-11-21T18:45:16;8.70;91.10
14884;DHT22;7534;50.762;7.000;2023-11-21T18:47:43;8.60;91.50
14884;DHT22;7534;50.762;7.000;2023-11-21T18:50:15;8.70;91.30
14884;DHT22;7534;50.762;7.000;2023-11-21T18:52:46;8.70;90.10
14884;DHT22;7534;50.762;7.000;2023-11-21T18:55:14;8.70;89.50
14884;DHT22;7534;50.762;7.000;2023-11-21T18:57:46;8.60;88.80
14884;DHT22;7534;50.762;7.000;2023-11-21T19:00:13;8.60;88.40
14884;DHT22;7534;50.762;7.000;2023-11-21T19:02:43;8.50;88.30
14884;DHT22;7534;50.762;7.000;2023-11-21T19:05:09;8.50;88.50
14884;DHT22;7534;50.762;7.000;2023-11-21T19:07:52;8.50;88.90
14884;DHT22;7534;50.762;7.000;2023-11-21T19:10:24;8.40;88.00
14884;DHT22;7534;50.762;7.000;2023-11-21T19:12:53;8.40;87.80
14884;DHT22;7534;50.762;7.000;2023-11-21T19:15:23;8.30;86.30
14884;DHT22;7534;50.762;7.000;2023-11-21T19:17:50;8.30;86.90
14884;DHT22;7534;50.762;7.000;2023-11-21T19:20:19;8.30;85.70
14884;DHT22;7534;50.762;7.000;2023-11-21T19:22:49;8.30;84.90
14884;DHT22;7534;50.762;7.000;2023-11-21T19:25:17;8.20;84.20
14884;DHT22;7534;50.762;7.000;2023-11-21T19:27:44;8.10;83.60
14884;DHT22;7534;50.762;7.000;2023-11-21T19:30:13;8.10;83.70
14884;DHT22;7534;50.762;7.000;2023-11-21T19:32:40;8.10;84.20
14884;DHT22;7534;50.762;7.000;2023-11-21T19:35:12;8.00;83.70
14884;DHT22;7534;50.762;7.000;2023-11-21T19:37:38;7.90;84.00
14884;DHT22;7534;50.762;7.000;2023-11-21T19:40:08;7.90;84.00
14884;DHT22;7534;50.762;7.000;2023-11-21T19:42:35;7.90;83.70
14884;DHT22;7534;50.762;7.000;2023-11-21T19:45:05;7.80;84.80
14884;DHT22;7534;50.762;7.000;2023-11-21T19:47:37;7.80;84.40
14884;DHT22;7534;50.762;7.000;2023-11-21T19:50:05;7.80;83.90
14884;DHT22;7534;50.762;7.000;2023-11-21T19:52:32;7.80;84.90
14884;DHT22;7534;50.762;7.000;2023-11-21T19:54:58;7.80;85.40
14884;DHT22;7534;50.762;7.000;2023-11-21T19:57:25;7.70;84.70
14884;DHT22;7534;50.762;7.000;2023-11-21T19:59:51;7.80;85.30
14884;DHT22;7534;50.762;7.000;2023-11-21T20:02:21;7.80;84.60
14884;DHT22;7534;50.762;7.000;2023-11-21T20:04:47;7.70;84.50
14884;DHT22;7534;50.762;7.000;2023-11-21T20:07:13;7.60;83.90
14884;DHT22;7534;50.762;7.000;2023-11-21T20:09:50;7.50;84.30
14884;DHT22;7534;50.762;7.000;2023-11-21T20:12:29;7.40;84.80
14884;DHT22;7534;50.762;7.000;2023-11-21T20:15:37;7.40;84.60
14884;DHT22;7534;50.762;7.000;2023-11-21T20:18:30;7.30;84.50
14884;DHT22;7534;50.762;7.000;2023-11-21T20:20:59;7.10;85.20
14884;DHT22;7534;50.762;7.000;2023-11-21T20:23:24;7.00;85.20
14884;DHT22;7534;50.762;7.000;2023-11-21T20:25:53;6.90;85.70
14884;DHT22;7534;50.762;7.000;2023-11-21T20:28:25;6.80;86.00
14884;DHT22;7534;50.762;7.000;2023-11-21T20:30:57;6.70;86.30
14884;DHT22;7534;50.762;7.000;2023-11-21T20:33:25;6.80;85.90
14884;DHT22;7534;50.762;7.000;2023-11-21T20:35:54;6.80;85.90
14884;DHT22;7534;50.762;7.000;2023-11-21T20:38:31;6.80;85.50